Latest Weather Observations for Morawa Airport

IDW60801

Issued at 3:23 pm WST Thursday 18 August 2022 (issued every 10 minutes, with the page automatically refreshed every 10 minutes)

About weather observations | Map of weather stations | Latest weather observations for WA | Other Formats
Station Details ID: 008296 Name: MORAWA AIRPORT Lat: -29.20 Lon: 116.02 Height: 271.4 m
Data from the previous 72 hours. | See also: Recent months at Morawa Airport
Date/Time
WST
Temp
°C
App
Temp
°C
Dew
Point
°C
Rel
Hum
%
Delta-T
°C
Wind Press
QNH
hPa
Press
MSL
hPa
Rain since
9am
mm
Dir  Spd
km/h
Gust
km/h
Spd
kts
Gust
kts
18/03:00pm 16.0 13.0 7.5 57 4.3 ESE 13 20 7 11 1027.2 1027.1 0.0
18/02:30pm 15.6 11.7 7.1 57 4.3 ESE 17 22 9 12 1027.0 1026.9 0.0
18/02:00pm 16.0 12.2 7.7 58 4.2 ESE 17 28 9 15 1026.7 1026.6 0.0
18/01:30pm 15.5 11.9 8.3 62 3.7 ESE 17 24 9 13 1027.1 1027.0 0.0
18/01:00pm 14.9 11.4 8.6 66 3.2 ESE 17 26 9 14 1027.2 1027.1 0.0
18/12:30pm 14.8 10.9 8.5 66 3.2 ESE 19 26 10 14 1027.6 1027.5 0.0
18/12:00pm 14.1 10.6 8.7 70 2.7 ESE 17 32 9 17 1027.9 1027.8 0.0
18/11:30am 13.8 10.5 9.5 75 2.2 E 17 24 9 13 1028.5 1028.5 0.0
18/11:00am 13.2 9.8 9.3 77 2.0 E 17 22 9 12 1028.7 1028.7 0.0
18/10:30am 12.6 10.2 10.1 85 1.3 E 13 20 7 11 1028.6 1028.6 0.0
18/10:00am 11.6 9.1 11.1 97 0.3 E 15 19 8 10 1028.6 1028.6 0.0
18/09:30am 10.7 8.1 10.7 100 0.0 ESE 15 22 8 12 1028.6 1028.6 0.0
18/09:00am 9.2 7.0 9.2 100 0.0 ESE 11 17 6 9 1028.5 1028.5 8.6
18/08:30am 8.1 6.0 8.1 100 0.0 SE 9 13 5 7 1028.3 1028.2 8.6
18/08:00am 7.1 5.3 7.1 100 0.0 SSE 6 7 3 4 1027.8 1027.7 8.6
18/07:30am 6.1 4.4 6.1 100 0.0 SE 4 4 2 2 1027.1 1027.0 8.6
18/07:00am 4.4 3.2 4.4 100 0.0 CALM 0 0 0 0 1026.7 1026.6 8.6
18/06:30am 5.2 3.4 5.2 100 0.0 S 4 6 2 3 1026.2 1026.1 8.6
18/06:00am 5.1 3.2 5.1 100 0.0 S 4 6 2 3 1026.0 1025.9 8.6
18/05:30am 5.5 4.1 5.5 100 0.0 S 2 4 1 2 1025.5 1025.4 8.6
18/05:00am 5.9 3.8 5.9 100 0.0 S 6 9 3 5 1025.1 1024.9 8.6
18/04:30am 6.3 3.7 6.3 100 0.0 S 9 11 5 6 1024.3 1024.2 8.6
18/04:00am 6.5 4.0 6.5 100 0.0 S 9 13 5 7 1024.1 1024.0 8.4
18/03:30am 6.4 4.2 6.4 100 0.0 S 7 9 4 5 1023.8 1023.7 8.4
18/03:00am 6.9 4.9 6.9 100 0.0 SSW 7 9 4 5 1023.3 1023.2 8.4
18/02:30am 7.6 5.7 7.6 100 0.0 SSW 7 7 4 4 1023.3 1023.2 8.4
18/02:00am 7.3 5.9 7.3 100 0.0 SW 4 6 2 3 1023.3 1023.2 8.4
18/01:30am 7.3 5.9 7.3 100 0.0 SW 4 6 2 3 1023.0 1022.9 8.4
18/01:00am 7.7 6.4 7.7 100 0.0 SW 4 6 2 3 1022.9 1022.8 8.4
18/12:30am 7.9 6.7 7.9 100 0.0 WSW 4 6 2 3 1022.4 1022.3 8.4
18/12:00am 8.3 7.5 8.3 100 0.0 WSW 2 6 1 3 1022.2 1022.1 8.4
 
Date/Time
WST
Temp
°C
App
Temp
°C
Dew
Point
°C
Rel
Hum
%
Delta-T
°C
Wind Press
QNH
hPa
Press
MSL
hPa
Rain since
9am
mm
Dir  Spd
km/h
Gust
km/h
Spd
kts
Gust
kts
17/11:30pm 8.6 7.0 8.6 100 0.0 W 7 11 4 6 1022.1 1021.9 8.4
17/11:00pm 8.7 7.1 8.7 100 0.0 WNW 7 11 4 6 1021.9 1021.7 8.4
17/10:30pm 8.7 7.3 8.7 100 0.0 WNW 6 7 3 4 1021.6 1021.4 8.4
17/10:00pm 8.8 6.8 8.8 100 0.0 W 9 11 5 6 1021.5 1021.3 8.4
17/09:30pm 9.1 7.2 9.1 100 0.0 W 9 13 5 7 1021.0 1020.9 8.4
17/09:00pm 9.4 7.6 9.4 100 0.0 W 9 13 5 7 1020.7 1020.6 8.4
17/08:30pm 10.1 7.7 10.1 100 0.0 W 13 17 7 9 1020.5 1020.4 8.4
17/08:00pm 10.9 8.7 10.9 100 0.0 WSW 13 17 7 9 1020.2 1020.1 8.4
17/07:30pm 11.3 9.2 11.3 100 0.0 WSW 13 20 7 11 1019.7 1019.6 8.4
17/07:00pm 11.5 9.9 11.5 100 0.0 WSW 11 17 6 9 1019.2 1019.1 8.4
17/06:30pm 11.4 8.2 11.4 100 0.0 WSW 19 28 10 15 1018.4 1018.2 8.4
17/06:00pm 11.7 6.9 11.7 100 0.0 WSW 28 44 15 24 1017.9 1017.7 8.4
17/05:30pm 12.9 9.3 12.9 100 0.0 WSW 24 39 13 21 1016.9 1016.8 8.2
17/05:00pm 13.6 8.1 13.6 100 0.0 W 35 57 19 31 1016.3 1016.2 8.2
17/04:47pm 13.7 9.6 13.7 100 0.0 W 28 46 15 25 1015.8 1015.6 8.2
17/04:30pm 13.6 9.8 13.6 100 0.0 W 26 44 14 24 1015.6 1015.4 8.2
17/04:00pm 13.6 10.2 13.6 100 0.0 W 24 39 13 21 1015.1 1014.9 8.2
17/03:30pm 13.7 10.7 13.7 100 0.0 W 22 37 12 20 1014.8 1014.6 8.0
17/03:00pm 14.9 11.9 14.9 100 0.0 W 24 35 13 19 1014.5 1014.3 7.8
17/02:40pm 14.1 10.1 14.1 100 0.0 W 28 46 15 25 1014.8 1014.6 7.8
17/02:30pm 14.6 10.4 14.6 100 0.0 W 30 43 16 23 1014.6 1014.4 7.8
17/02:00pm 14.5 11.4 14.5 100 0.0 W 24 39 13 21 1014.5 1014.3 7.6
17/01:30pm 14.0 10.0 14.0 100 0.0 WNW 28 37 15 20 1014.6 1014.4 7.4
17/01:00pm 14.9 12.3 14.9 100 0.0 WNW 22 37 12 20 1014.7 1014.5 5.4
17/12:30pm 14.6 12.5 14.6 100 0.0 WNW 19 26 10 14 1015.1 1014.9 5.4
17/12:00pm 14.0 11.1 14.0 100 0.0 W 22 32 12 17 1015.5 1015.3 4.4
17/11:30am 13.3 9.8 13.3 100 0.0 W 24 35 13 19 1015.9 1015.8 3.4
17/11:00am 14.2 10.6 14.2 100 0.0 WNW 26 39 14 21 1016.0 1015.9 2.2
17/10:30am 13.2 11.0 13.2 100 0.0 W 17 33 9 18 1016.2 1016.1 2.2
17/10:00am 14.8 12.6 14.3 97 0.3 WNW 19 37 10 20 1016.3 1016.2 0.0
17/09:30am 14.2 11.9 14.2 100 0.0 NW 19 28 10 15 1016.3 1016.2 0.0
17/09:00am 12.9 10.2 12.9 100 0.0 WNW 19 26 10 14 1016.0 1015.9 5.6
17/08:30am 11.9 9.3 11.9 100 0.0 WNW 17 24 9 13 1015.9 1015.8 5.6
17/08:00am 11.2 9.1 11.2 100 0.0 NW 13 19 7 10 1015.4 1015.2 5.0
17/07:30am 11.0 8.9 11.0 100 0.0 NNW 13 20 7 11 1015.0 1014.8 4.8
17/07:00am 10.5 8.2 10.5 100 0.0 NW 13 17 7 9 1014.7 1014.5 4.8
17/06:30am 10.9 8.0 10.9 100 0.0 NW 17 22 9 12 1014.3 1014.1 4.8
17/06:00am 10.9 8.7 10.9 100 0.0 NW 13 19 7 10 1014.1 1013.9 4.8
17/05:30am 11.1 9.0 11.1 100 0.0 WNW 13 19 7 10 1014.0 1013.8 4.6
17/05:00am 10.9 8.0 10.9 100 0.0 NW 17 20 9 11 1013.3 1013.2 4.6
17/04:30am 11.0 8.5 11.0 100 0.0 NW 15 20 8 11 1013.1 1013.0 4.6
17/04:00am 11.4 8.6 11.4 100 0.0 NW 17 20 9 11 1012.9 1012.8 4.6
17/03:30am 11.4 8.0 11.4 100 0.0 NW 20 32 11 17 1012.4 1012.2 4.6
17/03:00am 11.4 8.2 11.4 100 0.0 NW 19 30 10 16 1012.6 1012.4 4.4
17/02:30am 11.4 7.7 11.4 100 0.0 NW 22 32 12 17 1012.5 1012.3 4.2
17/02:00am 11.5 8.4 11.5 100 0.0 NW 19 30 10 16 1012.8 1012.7 4.2
17/01:30am 11.6 8.9 11.6 100 0.0 NW 17 26 9 14 1013.0 1012.9 3.8
17/01:00am 11.7 8.1 11.7 100 0.0 NW 22 30 12 16 1012.8 1012.7 3.8
17/12:30am 11.0 8.9 11.0 100 0.0 NW 13 19 7 10 1012.7 1012.6 3.8
17/12:00am 10.7 8.1 10.7 100 0.0 NW 15 20 8 11 1012.7 1012.6 3.8
 
Date/Time
WST
Temp
°C
App
Temp
°C
Dew
Point
°C
Rel
Hum
%
Delta-T
°C
Wind Press
QNH
hPa
Press
MSL
hPa
Rain since
9am
mm
Dir  Spd
km/h
Gust
km/h
Spd
kts
Gust
kts
16/11:30pm 10.7 8.5 10.7 100 0.0 NW 13 17 7 9 1012.9 1012.8 3.8
16/11:00pm 10.9 8.7 10.9 100 0.0 NW 13 17 7 9 1013.0 1012.9 3.8
16/10:30pm 11.2 9.5 11.2 100 0.0 NW 11 15 6 8 1013.2 1013.1 3.8
16/10:00pm 11.6 10.0 11.6 100 0.0 WNW 11 15 6 8 1013.3 1013.2 3.8
16/09:30pm 11.9 10.4 11.9 100 0.0 NW 11 15 6 8 1013.3 1013.2 3.8
16/09:00pm 12.3 10.9 12.3 100 0.0 NNW 11 13 6 7 1013.2 1013.1 3.8
16/08:30pm 12.7 11.5 12.7 100 0.0 NW 11 15 6 8 1013.2 1013.1 3.8
16/08:00pm 13.0 11.5 13.0 100 0.0 NW 13 15 7 8 1013.1 1013.0 3.8
16/07:30pm 13.4 12.0 13.4 100 0.0 NW 13 17 7 9 1012.9 1012.8 3.8
16/07:00pm 13.8 12.9 13.8 100 0.0 NW 11 15 6 8 1012.6 1012.4 3.6
16/06:30pm 13.9 13.8 13.9 100 0.0 NW 7 11 4 6 1012.0 1011.8 3.6
16/06:00pm 14.3 14.0 14.3 100 0.0 NW 9 15 5 8 1011.8 1011.6 3.6
16/05:30pm 14.3 14.0 14.3 100 0.0 WNW 9 17 5 9 1011.6 1011.4 3.6
16/05:00pm 14.5 13.1 14.5 100 0.0 W 15 24 8 13 1011.5 1011.3 3.4
16/04:30pm 15.0 13.0 15.0 100 0.0 WNW 19 26 10 14 1011.0 1010.8 3.0
16/04:00pm 15.4 13.0 15.4 100 0.0 WNW 22 32 12 17 1010.8 1010.6 2.8
16/03:30pm 15.1 13.0 15.1 100 0.0 W 20 28 11 15 1010.8 1010.6 2.8
16/03:00pm 15.3 14.2 15.3 100 0.0 W 15 20 8 11 1010.6 1010.4 2.8
16/02:30pm 15.0 13.4 15.0 100 0.0 W 17 30 9 16 1010.6 1010.4 2.8
16/02:00pm 15.7 14.0 15.7 100 0.0 W 19 28 10 15 1010.3 1010.1 1.8
16/01:30pm 15.9 14.3 15.9 100 0.0 W 19 28 10 15 1009.5 1009.3 1.8
16/01:00pm 16.1 14.0 16.1 100 0.0 NW 22 30 12 16 1009.7 1009.5 1.4
16/12:30pm 15.9 13.7 15.9 100 0.0 WNW 22 33 12 18 1010.2 1010.0 1.4
16/12:00pm 16.4 14.8 16.4 100 0.0 NW 20 28 11 15 1010.4 1010.2 0.4
16/11:30am 16.8 14.9 16.8 100 0.0 NW 22 33 12 18 1010.4 1010.2 0.2
16/11:00am 16.9 15.5 16.9 100 0.0 NW 20 26 11 14 1010.6 1010.4 0.2
16/10:30am 16.4 14.8 16.4 100 0.0 WNW 20 32 11 17 1010.5 1010.3 0.2
16/10:00am 16.3 14.6 16.3 100 0.0 NW 20 28 11 15 1010.6 1010.4 0.2
16/09:30am 15.9 14.3 15.9 100 0.0 NW 19 26 10 14 1009.9 1009.7 0.2
16/09:00am 15.7 14.0 15.7 100 0.0 NW 19 26 10 14 1010.4 1010.2 46.0
16/08:30am 15.5 12.8 15.5 100 0.0 NW 24 35 13 19 1010.5 1010.3 45.8
16/08:00am 15.4 12.2 15.4 100 0.0 WNW 26 37 14 20 1010.1 1009.9 45.8
16/07:30am 15.3 12.5 15.3 100 0.0 WNW 24 32 13 17 1009.5 1009.3 45.2
16/07:00am 15.5 12.4 15.5 100 0.0 WNW 26 37 14 20 1009.5 1009.3 44.8
16/06:30am 15.8 13.2 15.8 100 0.0 W 24 32 13 17 1009.0 1008.8 44.6
16/06:00am 16.7 15.7 16.7 100 0.0 WNW 17 26 9 14 1008.4 1008.2 44.2
16/05:30am 16.8 15.9 16.8 100 0.0 WNW 17 22 9 12 1008.2 1008.0 43.6
16/05:00am 17.4 16.7 17.4 100 0.0 WNW 17 24 9 13 1008.2 1008.0 41.6
16/04:30am 17.6 16.6 17.6 100 0.0 WNW 19 26 10 14 1007.8 1007.6 40.6
16/04:00am 17.9 17.4 17.9 100 0.0 WNW 17 22 9 12 1007.7 1007.5 40.0
16/03:30am 17.9 16.5 17.9 100 0.0 W 22 33 12 18 1007.5 1007.3 39.4
16/03:00am 18.4 16.4 18.4 100 0.0 WNW 26 41 14 22 1007.4 1007.2 37.8
16/02:30am 18.9 18.9 18.9 100 0.0 NW 17 22 9 12 1007.5 1007.3 33.0
16/02:00am 19.1 17.1 19.1 100 0.0 NW 28 39 15 21 1007.3 1007.1 29.0
16/01:52am 19.0 15.6 19.0 100 0.0 NW 35 54 19 29 1007.4 1007.2 27.0
16/01:37am 19.0 17.7 19.0 100 0.0 NNW 24 48 13 26 1007.1 1006.9 24.0
16/01:30am 18.3 19.2 18.3 100 0.0 N 11 26 6 14 1007.1 1006.9 21.8
16/01:00am 18.3 17.6 18.3 100 0.0 NNW 19 28 10 15 1007.6 1007.4 16.8
16/12:30am 17.9 19.0 17.9 100 0.0 NNW 9 17 5 9 1007.8 1007.6 15.0
16/12:00am 18.2 19.0 18.2 100 0.0 NNW 11 19 6 10 1008.1 1007.9 13.2
 
Date/Time
WST
Temp
°C
App
Temp
°C
Dew
Point
°C
Rel
Hum
%
Delta-T
°C
Wind Press
QNH
hPa
Press
MSL
hPa
Rain since
9am
mm
Dir  Spd
km/h
Gust
km/h
Spd
kts
Gust
kts
15/11:30pm 18.4 18.2 18.4 100 0.0 NNW 17 24 9 13 1008.1 1007.9 12.0
15/11:00pm 18.8 17.4 18.8 100 0.0 NNW 24 39 13 21 1008.6 1008.4 10.0
15/10:30pm 18.5 16.2 18.5 100 0.0 N 28 46 15 25 1008.6 1008.4 8.6
15/10:00pm 17.9 16.5 17.9 100 0.0 N 22 32 12 17 1009.2 1009.0 8.2
15/09:30pm 17.9 18.2 17.9 100 0.0 WNW 13 20 7 11 1010.5 1010.3 5.2
15/09:00pm 18.0 18.7 18.0 100 0.0 WNW 11 17 6 9 1010.2 1010.0 2.2
15/08:30pm 18.4 18.2 18.4 100 0.0 WNW 17 28 9 15 1010.6 1010.4 1.0
15/08:00pm 19.3 19.8 19.3 100 0.0 WNW 15 24 8 13 1010.5 1010.3 0.4
15/07:30pm 19.7 20.7 19.4 98 0.2 WNW 13 20 7 11 1009.7 1009.5 0.2
15/07:00pm 19.8 20.8 18.6 93 0.8 NNW 11 17 6 9 1009.2 1009.0 0.2
15/06:30pm 20.3 21.0 18.8 91 1.0 N 13 17 7 9 1008.9 1008.7 0.2
15/06:00pm 19.9 21.1 18.2 90 1.1 NNE 9 11 5 6 1008.0 1007.8 0.2
15/05:30pm 21.0 22.2 17.4 80 2.2 NNE 7 7 4 4 1008.0 1007.8 0.0
15/05:00pm 21.5 22.8 17.5 78 2.5 NNE 7 9 4 5 1008.3 1008.1 0.0
15/04:30pm 22.0 23.2 17.4 75 2.9 NNE 7 9 4 5 1008.9 1008.7 0.0
15/04:00pm 22.0 23.0 16.9 73 3.2 NE 7 9 4 5 1009.2 1009.0 0.0
15/03:30pm 22.9 23.8 16.0 65 4.2 NNE 6 9 3 5 1009.5 1009.3 0.0

Other formats

Comma delimited format used in spreadsheet applications
http://www.bom.gov.au/fwo/IDW60801/IDW60801.94417.axf

JavaScript Object Notation format (JSON) in row-major order
http://www.bom.gov.au/fwo/IDW60801/IDW60801.94417.json

Data quality

Most of these data are generated automatically and are frequently updated. Quality checks on data are not normally performed. It is possible for incorrect values to appear. Refer to information at About Latest Weather Observations and please check the disclaimer before using these data.